2017 Figawi Race Weekend
Preliminary Results Race 1

Select to view a specific Class results:   
Sail Number Yacht Name Yacht Design Owner/Skipper Status Rating Finish Time Elapsed Time Corrected Time Class Fleet
1. Figawi Race Weekend Racing
PHRF Division
Division S1
1 North Sails  GRE 55 Irie 2 Kerr 55 Brian Cunha -72.0 27/May/17 - 16:42:35 0:06:42:35 0:06:42:35 1
2   USA 30016 Just A Friend C&C 30 Clayton Deutsch 42.0 27/May/17 - 16:52:09 0:06:52:09 0:06:52:09 2
3   USA 52835 Ursus maritimus J 122 Jimmy Masiero 33.0 27/May/17 - 17:23:10 0:07:23:10 0:07:23:10 3
4 Quantum Sails  USA 60085 Moxiee J 122 Daniel Heun 30.0 27/May/17 - 17:24:39 0:07:24:39 0:07:24:39 4
5 North Sails  USA 43777 Crazy Horse Baltic JV Sean McLaughlin -9.0 27/May/17 - 17:25:17 0:07:25:17 0:07:25:17 5
6   USA 50807 M Squared J 120 Gordon Mack 51.0 27/May/17 - 17:35:09 0:07:35:09 0:07:35:09 6
7   30001 Kestrel C&C 30 Jonathan Cody 42.0 27/May/17 - 17:37:26 0:07:37:26 0:07:37:26 7
8   GBR 133L Jump J 133 Chris Lund 12.0 27/May/17 - 17:39:50 0:07:39:50 0:07:39:50 8
9   USA 51916 Glory J 120 David Follett 51.0 27/May/17 - 17:52:24 0:07:52:24 0:07:52:24 9
10   USA 145 Moose J 120 Rich Peirce 51.0 27/May/17 - 18:01:19 0:08:01:19 0:08:01:19 10
 
Division S2
1   83333 Wampum Nelson Marek MORC 30 Tom Lanagan 87.0 27/May/17 - 17:48:41 0:07:48:41 0:07:48:41 1
2   USA 413 Dark 'n Stormy J 105 Joyce, Reservitz & Wagner 90.0 27/May/17 - 17:49:49 0:07:49:49 0:07:49:49 2
3   USA 352 Lyric J 105 Gerry Lorusso 90.0 27/May/17 - 17:51:41 0:07:51:41 0:07:51:41 3
4 Quantum Sails  USA 7101 Ceann Saile Tartan 101 Geoffrey Roth 78.0 27/May/17 - 17:53:58 0:07:53:58 0:07:53:58 4
5 North Sails  USA 227 Waterwolf J105 Ed Lobo 90.0 27/May/17 - 17:55:25 0:07:55:25 0:07:55:25 5
6   USA 47 Adrenaline J 97 Andrew Meincke 102.0 27/May/17 - 17:57:50 0:07:57:50 0:07:57:50 6
7   USA 54 Flying Norseman Seascape 27 Toralf Strand 99.0 27/May/17 - 18:00:06 0:08:00:06 0:08:00:06 7
8   9 LuSea Seascape 24 Toralf Strand 102.0 27/May/17 - 18:11:25 0:08:11:25 0:08:11:25 8
9   USA 19 PRIMA J 105 Nick Aswad/ Nantucket HS Sailing Team DNF 96.0       10  
 
Division A
1   Uni XXX peningo Custom peter dougherty 36.0 27/May/17 - 16:43:47 0:06:43:47 0:06:43:47 1
2   USA 55655 Simon Says Andrews 70 Lorenzo Vascotto -75.0 27/May/17 - 16:52:05 0:06:52:05 0:06:52:05 2
3   USA 43950 Temptress Taylor 41 John Gowell 45.0 27/May/17 - 17:35:18 0:07:35:18 0:07:35:18 3
4   USA 5002 Stars and Stripes Nelson/Marek 40 Richard Levine 54.0 27/May/17 - 17:44:24 0:07:44:24 0:07:44:24 4
5   USA 52744 Slide Rule First 44.7 Scott Bearse 48.0 27/May/17 - 17:46:59 0:07:46:59 0:07:46:59 5
6   USA 25279 Shamrock Sensation N/M 40 Ralph DiMattia 51.0 27/May/17 - 17:48:00 0:07:48:00 0:07:48:00 6
7   USA 51333 Kinship Baltic 52 Tom Selldorff 36.0 27/May/17 - 17:48:42 0:07:48:42 0:07:48:42 7
8   USA 60464 Wings J 46 Richard Egan 48.0 27/May/17 - 17:50:25 0:07:50:25 0:07:50:25 8
 
Division B
1   USA 3 Mustang W46 Harvey Jones 81.0 27/May/17 - 17:26:26 0:07:26:26 0:07:26:26 1
2   USA 52475 Agora Beneteau First 36.7 David Powers 75.0 27/May/17 - 17:43:27 0:07:43:27 0:07:43:27 2
3   USA 52044 Ruse Swan 44 Mark II William Marsh 69.0 27/May/17 - 17:45:54 0:07:45:54 0:07:45:54 3
4   USA 73458 High Tea Frers 38 Christopher Brolly 75.0 27/May/17 - 17:46:41 0:07:46:41 0:07:46:41 4
5   USA 51599 Riff Raff C&C 121 Richard Rothstein 78.0 27/May/17 - 17:47:34 0:07:47:34 0:07:47:34 5
6   USA 41941 Sarabande Frers 41 Mitchell Menard 72.0 27/May/17 - 17:50:05 0:07:50:05 0:07:50:05 6
7   USA 41880 KAOS Frers 41 TM Chuck Fontaine 66.0 27/May/17 - 17:52:34 0:07:52:34 0:07:52:34 7
8   USA 20420 Veladare C&C 42 Custom John Myles 87.0 27/May/17 - 18:02:22 0:08:02:22 0:08:02:22 8
9   USA 52360 Restless beneteau 473 timothy lynn 84.0 27/May/17 - 18:20:04 0:08:20:04 0:08:20:04 9
10   USA 60792 Abide Hanse 415 Thomas Catalano DNF 84.0       11  
 
Division C
1   USA 53303 Seefest J 29 MH OB Ira Perry 111.0 27/May/17 - 17:37:17 0:07:37:17 0:07:37:17 1
2   USA 22714 Kanga Peterson 34 Cam Tougas 123.0 27/May/17 - 17:47:53 0:07:47:53 0:07:47:53 2
3   USA 60282 Sea Wings C&C 99 Kevin O'Leary 117.0 27/May/17 - 17:50:50 0:07:50:50 0:07:50:50 3
4   USA 51650 Southern Dream Beneteau 50 James Flanagan 96.0 27/May/17 - 17:51:17 0:07:51:17 0:07:51:17 4
5   USA 40635 Tonga Baltic 35 mark fitzgerald 123.0 27/May/17 - 17:52:09 0:07:52:09 0:07:52:09 5
6   USA 162 Here Comes The Sun Olson 34 kevin mccoole 126.0 27/May/17 - 17:53:23 0:07:53:23 0:07:53:23 6
7   USA 31622 Star Gazer Meri40 Thomas Zauli 114.0 27/May/17 - 17:53:25 0:07:53:25 0:07:53:25 7
8   USA 16616 Keewaydin Tartan 41 Jack May 117.0 27/May/17 - 17:54:38 0:07:54:38 0:07:54:38 8
9   USA 52766 Blue Note Bristol 43.3 Gary Nackman 126.0 27/May/17 - 18:02:21 0:08:02:21 0:08:02:21 9
10   USA 49 Maxami Frers 33 Len Schnabel 120.0 27/May/17 - 18:13:59 0:08:13:59 0:08:13:59 10
 
Division D
1   USA 298 Expedient Pearson 32 Stephen Lamb 174.0 27/May/17 - 14:09:09 0:04:09:09 0:04:09:09 1
2   USA 41644 Toujours Tartan 37 Brian Bush 138.0 27/May/17 - 14:30:21 0:04:30:21 0:04:30:21 2
3   USA 676 Wizard Concordia Yawl Henry Dane 168.0 27/May/17 - 15:06:34 0:05:06:34 0:05:06:34 3
4   USA 264 Averisera Aphrodite 101 Elizabeth Lamb 141.0 27/May/17 - 15:20:22 0:05:20:22 0:05:20:22 4
5   USA 216 FullHouse Catalina 42 Michael P. Hogan 132.0 27/May/17 - 15:36:15 0:05:36:15 0:05:36:15 5
6 UK Sailmakers  USA 1118 Voyager Alberg 35 Peter Karlson 219.0 27/May/17 - 15:39:24 0:05:39:24 0:05:39:24 6
7   USA 31205 Austerity C&C 38 Jay Fisher 147.0 27/May/17 - 15:40:52 0:05:40:52 0:05:40:52 7
8   USA 323 Babette Beneteau 323 David Calnan 168.0 27/May/17 - 15:45:52 0:05:45:52 0:05:45:52 8
9   USA 52453 Blue Wren Sabre 34 Michael Saltzman 159.0 27/May/17 - 15:50:55 0:05:50:55 0:05:50:55 9
10   USA 171 Siena Dickerson AC37 Peter Owens DNF 189.0       12  
11   40859 Tabu Catalina 36 Joseph O'Loughlin DNF 132.0       12  
 
Division E
1   USA 52309 Boondoggle X-Yachts X-37 Scott Kirkpatrick 87.0 27/May/17 - 14:18:23 0:04:18:23 0:04:18:23 1
2   USA 50940 Wildflower Sabre 402 Jonathan Pope 87.0 27/May/17 - 14:27:10 0:04:27:10 0:04:27:10 2
3   USA 42700 Duck Soup c&c Bill Clavin 93.0 27/May/17 - 14:31:56 0:04:31:56 0:04:31:56 3
4   50011 Eider Down Morris 51 Bruce Robinson 90.0 27/May/17 - 14:41:50 0:04:41:50 0:04:41:50 4
5   USA 61430 Pressure Drop Arcona 430 Dave Alexander 57.0 27/May/17 - 14:44:59 0:04:44:59 0:04:44:59 5
6   Usa 60170 Reconciled Beneteau 40.7 Phillip Roshak 75.0 27/May/17 - 14:46:52 0:04:46:52 0:04:46:52 6
7   USA 42800 Joululahja Jon Meri 48' Massachusetts Maritime Academy 84.0 27/May/17 - 14:55:49 0:04:55:49 0:04:55:49 7
8   USA 61702 Lynley III little Harbor 60 Jim Barnes 75.0 27/May/17 - 15:06:59 0:05:06:59 0:05:06:59 8
9   USA 60541 Kiska Hanse 445 Will Richmond 93.0 27/May/17 - 15:16:45 0:05:16:45 0:05:16:45 9
10   USA 60044 Yoroshiku Jeanneau 54 Walter Crosby 75.0 27/May/17 - 15:22:06 0:05:22:06 0:05:22:06 10
11   USA 6610 Rivky Oyster 66 Daniel Adelson 51.0 27/May/17 - 16:07:23 0:06:07:23 0:06:07:23 11
12   54 Paradise Found Jenneau 54 Jesse Adams-Doolittle 78.0 27/May/17 - 18:59:59 0:08:59:59 0:08:59:59 12
13   55 True North Jeanneau Brendan Feitelberg DNF 78.0       17  
14   26 Paradiso ben 42s7 james h zenone DNF 87.0       17  
15   60662 Panacea Ted Hood Robert Butler DNS 63.0       17  
 
Division F
1 Other  USA 30078 Ares C&C 40-2TR Linda Hosking 105.0 27/May/17 - 14:29:48 0:04:29:48 0:04:29:48 1
2   USA 63164 Legacy II Beneteau First Tom Denney 96.0 27/May/17 - 14:30:12 0:04:30:12 0:04:30:12 2
3   USA 32977 Eroica Baltic 38 DP Christian Nebergall 111.0 27/May/17 - 14:54:04 0:04:54:04 0:04:54:04 3
4   52378 Windigo Sabre426 George Brown 99.0 27/May/17 - 15:04:39 0:05:04:39 0:05:04:39 4
5   USA 60654 Nixie Hanse 455 Jennifer Hausladen 99.0 27/May/17 - 15:07:11 0:05:07:11 0:05:07:11 5
6   21 Blixtar New York 40 Peter Ross 108.0 27/May/17 - 15:08:55 0:05:08:55 0:05:08:55 6
7   207 Sea Gate Hanse 400 Michael DiMella 96.0 27/May/17 - 15:11:17 0:05:11:17 0:05:11:17 7
8   USA 52428 Smitten J 40 Bill Jones 111.0 27/May/17 - 15:24:22 0:05:24:22 0:05:24:22 8
9 Doyle Sailmakers  USA 51700 Rendezvous II Beneteau Oceanis 461 Michael Mason 111.0 27/May/17 - 15:27:27 0:05:27:27 0:05:27:27 9
10   USA 25391 Meridian Tartan 4600 Murray Beach 96.0 27/May/17 - 15:40:40 0:05:40:40 0:05:40:40 10
11   USA SWE Athelas Benneteau Timothy Keohan DNF 108.0       15  
12   USA 49 Perfect Summer 49 Jeanneau D/S Bob Solomon, Friends & WV Heroes DNF 102.0       15  
13   USA 46 Northern Lights Jeanneau 469 JD Dan Solomon DNF 108.0       15  
14   USA 50006 Loon Morris M42 Brian Storms DNS 108.0       15  
 
Divison G
1   USA 50865 Gilgamesh Bavaria 39 Matthew Parker 123.0 27/May/17 - 14:34:48 0:04:34:48 0:04:34:48 1
2   7 Summer Wind Beneteau Jon Solomon 117.0 27/May/17 - 14:57:51 0:04:57:51 0:04:57:51 2
3   USA 30720 Osprey II C&C 40 Tom Hutchinson 123.0 27/May/17 - 15:00:52 0:05:00:52 0:05:00:52 3
4   USA 20564 Menage a Trois C&C 38 Peter Ogren 123.0 27/May/17 - 15:01:38 0:05:01:38 0:05:01:38 4
5   6 Summer Music Jeanneau 419 Robert Behrent DNF 123.0       13  
6 Quantum Sails  USA 177 Ballybunion Beneteau Oceanis 400 Richard Murphy DNF 129.0       13  
7   USA 20799 PEARL Hinckley 43 Michael Shea DNF 123.0       13  
8   USA 8 Summer Fun - Willis D Beneteau Mike McNamara y amigos DNF 117.0       13  
9   USA 60478 William Henry II Jeanneau 409 Philip Marrandette DNF 129.0       14  
10   14 Amatuana Freedom John Celi DNF 129.0       14  
11   3 Summer Star Jeanneau Sun Odyssey 419 Joshua Newbury DNF 120.0       14  
12   463 Imagine Beneteau 461 David Grosso DNS 129.0       14  
 
Division H
1   117 fine line S2 9.1 andrew seguin 135.0 27/May/17 - 14:44:37 0:04:44:37 0:04:44:37 1
2   51906 Indian Summer Sabre 38 MK II Sheridan Carey 135.0 27/May/17 - 14:44:51 0:04:44:51 0:04:44:51 2
3   USA 22338 Patriot Gulfstar Custom 40 Marc Knittle 135.0 27/May/17 - 14:45:11 0:04:45:11 0:04:45:11 3
4   15 Ariel Tartan 40 Douglas Ryan 132.0 27/May/17 - 15:01:22 0:05:01:22 0:05:01:22 4
5   USA 7866 Evening Star C&C Redline Bryan Gordon 132.0 27/May/17 - 15:02:47 0:05:02:47 0:05:02:47 5
6   3635 Somerset Morris M36 William Heald 135.0 27/May/17 - 15:14:29 0:05:14:29 0:05:14:29 6
7   USA 93035 Trinity C&C 37 David McDonough 135.0 27/May/17 - 15:17:05 0:05:17:05 0:05:17:05 7
8   51607 Gray Lady Catalina 38 Mark Murphy / Bill Bubenicek 132.0 27/May/17 - 15:51:10 0:05:51:10 0:05:51:10 8
9   USA 99075 Coverage J 34 Thomas Ellis 132.0 27/May/17 - 16:39:54 0:06:39:54 0:06:39:54 9
10   USA 31905 No Worries C&C 37 Matthew & Diane Beaulieu 132.0 27/May/17 - 17:28:09 0:07:28:09 0:07:28:09 10
11 Quantum Sails  USA 619 Flagship Catalina 42 MKII Robert Shore 132.0 27/May/17 - 17:30:22 0:07:30:22 0:07:30:22 11
12   5 Summer Breeze Oceanis 423 Tad Beagley DNF 135.0       15  
13   44 PR Princess Jeanneau 439 Greg Allen DNF 132.0       15  
 
Division K
1   41984 Alexa Jeanneau Sunshine 38 Josh Antrim 138.0 27/May/17 - 14:34:19 0:04:34:19 0:04:34:19 1
2   13982 Expresso C&C 35 Mark II Jan Trousilek 138.0 27/May/17 - 14:49:44 0:04:49:44 0:04:49:44 2
3   USA 16 LAGERTHA Pearson 39-2 Kurt Kalberer II 147.0 27/May/17 - 14:53:03 0:04:53:03 0:04:53:03 3
4   USA 655 Instant Karma Cheoy Lee Offshore 47 Andrew Hayden 141.0 27/May/17 - 14:56:17 0:04:56:17 0:04:56:17 4
5   USA 206 INCOGNITO Sabre 362 brian testa 138.0 27/May/17 - 15:00:02 0:05:00:02 0:05:00:02 5
6   USA 60405 Artful Dodger Tartan Michael Powers 147.0 27/May/17 - 15:03:29 0:05:03:29 0:05:03:29 6
7   USA 60827 Mad Wave CAL 33 Anthony Coutlis 144.0 27/May/17 - 15:04:52 0:05:04:52 0:05:04:52 7
8   US 313 Arete' Ericson 38 Jay Fernandes 141.0 27/May/17 - 15:19:57 0:05:19:57 0:05:19:57 8
9   40883 Syzygy Catalina 38 Madeline Vachon 138.0 27/May/17 - 15:53:10 0:05:53:10 0:05:53:10 9
10   USA 60802 Shindig Pearson 39 Kevin Flannery   27/May/17 - 16:10:56 0:06:10:56 0:06:10:56 10
11   126 Black Seal Sabre 38 MkII Mark DiGiovanni DNF 141.0       16  
12 UK Sailmakers  747 Last Retreat Hunter 405 Gregory Winsor DNF 144.0       16  
13   USA 52752 Panacea Jeanneau 43 Bill Campbell DNF 144.0       16  
14   USA 1666 Gyre Sloop Katherine Kennedy DNF 138.0       16  
15   35689 Irrational Too Beneteau Oceanis 40 Brent Byers DNF 138.0       16  
 
Division L
1   42 Domino Cal 33-2 SD Paul Duffy 159.0 27/May/17 - 14:22:44 0:04:22:44 0:04:22:44 1
2   141 Shannon Cal 33-2 William Brossi 153.0 27/May/17 - 14:41:23 0:04:41:23 0:04:41:23 2
3   3782 Breezing Up Beneteau 373 Roy Catignani 150.0 27/May/17 - 14:46:09 0:04:46:09 0:04:46:09 3
4   USA 92 Kinsale P 36-2 Allen Eddy 153.0 27/May/17 - 14:50:20 0:04:50:20 0:04:50:20 4
5 Quantum Sails  USA 60138 Being There Freedom 38 Edward Reiss 156.0 27/May/17 - 15:12:08 0:05:12:08 0:05:12:08 5
6   USA 379 Time Out C&C 34 Doug Evans 165.0 27/May/17 - 15:25:50 0:05:25:50 0:05:25:50 6
7   USA 21100 Loose Goose Pointin29 Garry Blank 162.0 27/May/17 - 15:37:14 0:05:37:14 0:05:37:14 7
8   51524 Cricket Passport C brad Curtis 165.0 27/May/17 - 15:47:20 0:05:47:20 0:05:47:20 8
9   USA 107 Zusammen Pearson 36-2 John Schnauck 162.0 27/May/17 - 15:50:10 0:05:50:10 0:05:50:10 9
10   USA 21525 Ambiance C&C 34 Mike McWilliams 162.0 27/May/17 - 16:02:55 0:06:02:55 0:06:02:55 10
11   13 Amore Vero Cal 39 Thomas Nutter DNF 153.0       16  
12 Doyle Sailmakers  USA 39 Valkyrie Cal 39 Jack Keating DNF 153.0       16  
13   USA 114 Seyana III Pearson 36 Warren Graves DNF 156.0       16  
14   USA 100 Luna Jeanneau SO 39 I Thomas Austin DNF 153.0       16  
15   434 Reflections Tartan 37-2 Steve Bearden DNF 156.0       16  
 
Division M
1   USA 43 Shadowfax J 28 Bradford Butman 186.0 27/May/17 - 14:30:30 0:04:30:30 0:04:30:30 1
2   USA 1174 Student Driver J 24 Mark Barrett 180.0 27/May/17 - 14:33:10 0:04:33:10 0:04:33:10 2
3   80 Daily Dose Sabre32 Michael Kasztejna 186.0 27/May/17 - 14:52:31 0:04:52:31 0:04:52:31 3
4   22508 Secret Ranger Gerry Panuczak 180.0 27/May/17 - 14:53:28 0:04:53:28 0:04:53:28 4
5   USA 1448 Ocean Rose Catalina 34 Daniel White 177.0 27/May/17 - 14:56:06 0:04:56:06 0:04:56:06 5
6   USA 51086 Rough Draft Pearson 33-2 Art, Lisa, and Derek Radtke 177.0 27/May/17 - 15:03:02 0:05:03:02 0:05:03:02 6
7   USA 91 L'Amarre Alberg Robert Mintz 186.0 27/May/17 - 15:29:55 0:05:29:55 0:05:29:55 7
8   USA 343 At Last Beneteau 343 James Saben 183.0 27/May/17 - 15:33:13 0:05:33:13 0:05:33:13 8
9   USA 247 Midsummer Nonsuch 30 James Mattison 180.0 27/May/17 - 15:38:01 0:05:38:01 0:05:38:01 9
10 Other  USA 439 Anam Cara Nonsuch 30 Terrence Sullivan 177.0 27/May/17 - 15:42:42 0:05:42:42 0:05:42:42 10
11   52946 Cloud 10 Hun3ter Mark OLeary 171.0 27/May/17 - 15:58:53 0:05:58:53 0:05:58:53 11
12   166 Surrender Hinckley B-40 Tim Barberich 168.0 27/May/17 - 15:59:43 0:05:59:43 0:05:59:43 12
13   USA 2278 Lady Love Catalina 36 John/Lynne Love 171.0 27/May/17 - 18:20:47 0:08:20:47 0:08:20:47 13
14   USA 42317 Voyageur Bristol 35.5 Neil McLaughlin DNF 180.0       17  
15 Quantum Sails  61343 Shanti Beneteau 343 Robert Raymond DNF 177.0       17  
16 Hood Sailmakers  USA 10047 ALICE BLUE Hinckley Bermuda 40 Greg & Meg Deegan DNS 174.0       17  
 
Division N
1   USA 481 Calypso Pearson P35 Denis Yannatos 195.0 27/May/17 - 14:33:14 0:04:33:14 0:04:33:14 1
2 North Sails  USA 363 Tradewinds Catalina 320 Corrine & Matt Doyle 192.0 27/May/17 - 14:53:13 0:04:53:13 0:04:53:13 2
3   USA 51353 Saylavee Beneteau 311 Peter Soule 192.0 27/May/17 - 14:58:43 0:04:58:43 0:04:58:43 3
4   USA 10686 Spray Tartan 37 Jason Calianos 201.0 27/May/17 - 14:58:48 0:04:58:48 0:04:58:48 4
5 North Sails  USA 1037 Winters Dream Pearson 30 Daniel DeMarco 203.0 27/May/17 - 15:03:45 0:05:03:45 0:05:03:45 5
6   341 Island Time Catalina 30 Elliott Hughes 201.0 27/May/17 - 15:22:53 0:05:22:53 0:05:22:53 6
7   USA 584 Analgesic Catalina 34 Brian McPhillips 189.0 27/May/17 - 15:33:44 0:05:33:44 0:05:33:44 7
8   999 LunaSea Beneteua First 285 Jack Foster 201.0 27/May/17 - 18:37:52 0:08:37:52 0:08:37:52 8
9   USA 60520 Spray Mason A. Hugh Scott DNF 192.0       14  
10   USA 117 Perseverance Bristol 29.9 John Plominski DNF 201.0       14  
11   1948 MIRAGE HUNTER30 TONY SMITH DNF 201.0       14  
12   USA 2508 Glenayr Catalina 30 Sean McCarthy DNS 201.0       14  
13   Uni 236 Aftica Irwin Hugh MacKenzie DNS 201.0       14  
 
Division O
1   USA 30495 Helios Alberg 35 Charlie Prefontaine 210.0 27/May/17 - 14:34:34 0:04:34:34 0:04:34:34 1
2   USA 50606 Cassiopeia Islander B-30 Evan McCormick 210.0 27/May/17 - 14:37:18 0:04:37:18 0:04:37:18 2
3   USA 60028 Fidelis NIC-32 Jim Taylor 204.0 27/May/17 - 14:54:09 0:04:54:09 0:04:54:09 3
4   7 Aphrodite Soverall Paul Sweeney 225.0 27/May/17 - 14:57:51 0:04:57:51 0:04:57:51 4
5   USA 5922 Celtic Rose Catalina 30 Patrick Callahan 207.0 27/May/17 - 15:02:36 0:05:02:36 0:05:02:36 5
6   USA 5889 Knotty Dog Catalina 30 Garran Peterson 207.0 27/May/17 - 15:04:22 0:05:04:22 0:05:04:22 6
7   USA 254 White Swan Hunter 28 Scott Shucher 213.0 27/May/17 - 15:05:10 0:05:05:10 0:05:05:10 7
8   184 BARK Bristol 32 Sloop Kevin Nagle 225.0 27/May/17 - 15:05:18 0:05:05:18 0:05:05:18 8
9   145 Olivia Pearson Vanguard Drew Dunne 225.0 27/May/17 - 15:06:31 0:05:06:31 0:05:06:31 9
10   111 Osprey CD28 Larry Burke 225.0 27/May/17 - 15:32:45 0:05:32:45 0:05:32:45 10
11   47 Second Wind Catalina 315 Mike Howell 216.0 27/May/17 - 15:57:11 0:05:57:11 0:05:57:11 11
12   USA 60629 Watercolor Cape Dory Intrepid 9M Graham Coates 225.0 27/May/17 - 16:16:46 0:06:16:46 0:06:16:46 12
13   US 1 Joe Creek Artekno warren jones 204.0 27/May/17 - 17:05:25 0:07:05:25 0:07:05:25 13
14   USA 40907 Speculation Hunter 25.5 Gregory Kelly DNF 225.0       16  
15   usa 116 Desiderata IP 32 garrett douglas DNF 219.0       16  
 
 

Back to previous page
Main Menu

Copyright © Interactive Creations 2000-2017